createdAt,value
2022-12-01T00:01:33.077Z,96.27
2022-12-01T00:06:32.550Z,108.80
2022-12-01T00:11:30.742Z,88.93
2022-12-01T00:16:28.970Z,97.50
2022-12-01T00:21:28.009Z,99.03
2022-12-01T00:26:28.720Z,102.63
2022-12-01T00:31:27.499Z,104.87
2022-12-01T00:36:26.007Z,112.13
2022-12-01T00:41:25.957Z,103.17
2022-12-01T00:46:25.344Z,94.50
2022-12-01T00:51:24.409Z,101.57
2022-12-01T00:56:22.442Z,92.50
2022-12-01T01:01:21.026Z,104.53
2022-12-01T01:06:20.498Z,94.67
2022-12-01T01:11:18.612Z,100.27
2022-12-01T01:16:18.264Z,80.67
2022-12-01T01:21:18.724Z,83.90
2022-12-01T01:26:20.194Z,90.67
2022-12-01T01:31:21.442Z,91.47
2022-12-01T01:36:20.761Z,91.70
2022-12-01T01:41:20.729Z,83.53
2022-12-01T01:46:20.668Z,81.00
2022-12-01T01:51:23.131Z,96.60
2022-12-01T01:56:22.978Z,84.13
2022-12-01T02:01:21.341Z,79.33
2022-12-01T02:06:19.482Z,84.10
2022-12-01T02:11:52.197Z,69.23
2022-12-01T02:17:00.517Z,88.80
2022-12-01T02:22:11.991Z,81.50
2022-12-01T02:27:19.973Z,76.40
2022-12-01T02:32:30.766Z,81.70
2022-12-01T02:37:36.320Z,84.37
2022-12-01T02:42:54.517Z,91.17
2022-12-01T02:47:57.354Z,87.63
2022-12-01T02:52:56.089Z,88.73
2022-12-01T02:57:54.123Z,96.10
2022-12-01T03:03:20.029Z,91.80
2022-12-01T03:08:27.905Z,101.80
2022-12-01T03:13:39.160Z,84.40
2022-12-01T03:18:41.912Z,79.77
2022-12-01T03:23:43.631Z,86.90
2022-12-01T03:28:47.165Z,75.63
2022-12-01T03:33:51.564Z,76.63
2022-12-01T03:38:55.312Z,87.60
2022-12-01T03:43:57.078Z,87.23
2022-12-01T03:48:56.552Z,82.47
2022-12-01T03:54:00.131Z,99.77
2022-12-01T03:59:01.113Z,83.60
2022-12-01T04:04:06.071Z,84.97
2022-12-01T04:09:04.728Z,83.47
2022-12-01T04:14:02.736Z,99.13
2022-12-01T04:19:02.170Z,92.20
2022-12-01T04:24:03.410Z,90.13
2022-12-01T04:29:01.543Z,83.03
2022-12-01T04:34:00.557Z,97.10
2022-12-01T04:39:00.279Z,104.43
2022-12-01T04:43:58.638Z,94.60
2022-12-01T04:48:56.661Z,90.47
2022-12-01T04:53:54.683Z,91.93
2022-12-01T04:58:54.090Z,93.77
2022-12-01T05:03:52.163Z,91.37
2022-12-01T05:08:51.354Z,88.20
2022-12-01T05:13:50.700Z,86.70
2022-12-01T05:18:51.302Z,100.50
2022-12-01T05:23:49.444Z,111.47
2022-12-01T05:28:47.501Z,112.53
2022-12-01T05:33:45.520Z,93.63
2022-12-01T05:38:44.906Z,90.67
2022-12-01T05:43:43.175Z,96.90
2022-12-01T05:48:41.193Z,100.63
2022-12-01T05:53:39.703Z,92.97
2022-12-01T05:58:39.140Z,99.23
2022-12-01T06:03:37.191Z,103.30
2022-12-01T06:08:35.262Z,98.90
2022-12-01T06:13:33.349Z,112.03
2022-12-01T06:18:37.289Z,108.07
2022-12-01T06:23:35.860Z,100.77
2022-12-01T06:28:33.910Z,95.87
2022-12-01T06:33:33.506Z,93.50
2022-12-01T06:38:32.908Z,93.23
2022-12-01T06:43:31.479Z,99.20
2022-12-01T06:48:29.541Z,100.00
2022-12-01T06:53:29.511Z,93.53
2022-12-01T06:58:27.565Z,91.80
2022-12-01T07:03:26.143Z,89.60
2022-12-01T07:08:24.155Z,94.63
2022-12-01T07:13:24.356Z,96.73
2022-12-01T07:18:23.823Z,100.70
2022-12-01T07:23:22.182Z,94.83
2022-12-01T07:28:20.223Z,96.43
2022-12-01T07:33:19.646Z,101.50
2022-12-01T07:38:21.885Z,99.63
2022-12-01T07:43:20.353Z,102.93
2022-12-01T07:48:19.751Z,105.67
2022-12-01T07:53:17.799Z,106.17
2022-12-01T07:58:15.829Z,120.83
2022-12-01T08:03:14.841Z,129.17
2022-12-01T08:08:14.334Z,107.83
2022-12-01T08:13:17.155Z,116.13
2022-12-01T08:18:15.684Z,123.43
2022-12-01T08:23:15.107Z,139.87
2022-12-01T08:28:13.160Z,135.10
2022-12-01T08:33:11.396Z,132.37
2022-12-01T08:38:10.900Z,124.57
2022-12-01T08:43:15.177Z,136.43
2022-12-01T08:48:21.006Z,149.63
2022-12-01T08:53:19.060Z,142.97
2022-12-01T08:58:18.481Z,158.13
2022-12-01T09:03:16.581Z,156.37
2022-12-01T09:08:32.572Z,151.23
2022-12-01T09:13:32.461Z,142.83
2022-12-01T09:18:31.275Z,153.53
2022-12-01T09:23:29.323Z,171.03
2022-12-01T09:28:27.366Z,158.60
2022-12-01T09:33:26.774Z,142.27
2022-12-01T09:38:24.791Z,136.77
2022-12-01T09:43:26.601Z,140.00
2022-12-01T09:48:32.498Z,137.47
2022-12-01T09:53:31.171Z,143.53
2022-12-01T09:58:31.497Z,136.03
2022-12-01T10:03:35.876Z,136.73
2022-12-01T10:08:38.293Z,151.47
2022-12-01T10:13:36.417Z,148.63
2022-12-01T10:18:48.048Z,138.73
2022-12-01T10:24:02.976Z,128.67
2022-12-01T10:29:13.018Z,153.93
2022-12-01T10:34:21.068Z,136.67
2022-12-01T10:39:29.875Z,144.97
2022-12-01T10:44:29.377Z,149.60
2022-12-01T10:49:39.063Z,121.57
2022-12-01T10:54:39.246Z,132.37
2022-12-01T10:59:45.034Z,138.83
2022-12-01T11:04:52.021Z,132.70
2022-12-01T11:10:16.358Z,139.77
2022-12-01T11:15:23.564Z,132.13
2022-12-01T11:20:35.784Z,132.90
2022-12-01T11:25:33.889Z,118.03
2022-12-01T11:30:33.798Z,124.77
2022-12-01T11:35:36.328Z,134.70
2022-12-01T11:40:39.597Z,122.60
2022-12-01T11:45:40.217Z,116.20
2022-12-01T11:50:42.024Z,107.07
2022-12-01T11:55:40.095Z,127.10
2022-12-01T12:00:46.447Z,108.80
2022-12-01T12:06:38.268Z,122.57
2022-12-01T12:11:28.395Z,101.63
2022-12-01T12:16:44.229Z,96.50
2022-12-01T12:21:53.046Z,98.30
2022-12-01T12:26:57.040Z,96.77
2022-12-01T12:32:07.582Z,93.27
2022-12-01T12:37:20.247Z,87.40
2022-12-01T12:42:28.106Z,92.13
2022-12-01T12:47:49.187Z,80.47
2022-12-01T12:52:52.754Z,91.10
2022-12-01T12:57:54.702Z,92.80
2022-12-01T13:02:57.372Z,80.80
2022-12-01T13:08:02.206Z,79.27
2022-12-01T13:13:12.732Z,84.17
2022-12-01T13:18:18.808Z,80.70
2022-12-01T13:23:20.122Z,79.40
2022-12-01T13:28:22.633Z,87.90
2022-12-01T13:33:20.679Z,74.17
2022-12-01T13:38:29.570Z,73.43
2022-12-01T13:43:27.676Z,72.73
2022-12-01T13:48:31.332Z,76.57
2022-12-01T13:53:33.295Z,87.03
2022-12-01T13:58:47.124Z,77.37
2022-12-01T14:03:53.975Z,71.20
2022-12-01T14:08:57.448Z,81.50
2022-12-01T14:13:58.474Z,70.60
2022-12-01T14:18:58.415Z,68.03
2022-12-01T14:24:06.317Z,76.00
2022-12-01T14:29:26.782Z,77.30
2022-12-01T14:34:26.969Z,74.90
2022-12-01T14:39:28.828Z,72.30
2022-12-01T14:44:31.620Z,82.43
2022-12-01T14:49:33.738Z,72.80
2022-12-01T14:54:39.237Z,73.00
2022-12-01T14:59:37.279Z,73.70
2022-12-01T15:04:36.245Z,67.17
2022-12-01T15:09:36.211Z,79.43
2022-12-01T15:14:36.525Z,69.90
2022-12-01T15:19:37.903Z,79.17
2022-12-01T15:24:38.436Z,65.93
2022-12-01T15:29:44.665Z,66.40
2022-12-01T15:34:44.586Z,68.70
2022-12-01T15:39:48.029Z,69.63
2022-12-01T15:44:46.195Z,71.80
2022-12-01T15:49:50.271Z,67.43
2022-12-01T15:54:51.133Z,68.57
2022-12-01T15:59:54.376Z,76.23
2022-12-01T16:05:02.053Z,61.00
2022-12-01T16:10:02.546Z,76.40
2022-12-01T16:15:18.339Z,84.10
2022-12-01T16:20:23.634Z,81.97
2022-12-01T16:25:29.804Z,76.80
2022-12-01T16:30:31.324Z,79.13
2022-12-01T16:35:31.389Z,73.60
2022-12-01T16:40:30.987Z,81.17
2022-12-01T16:45:29.228Z,75.67
2022-12-01T16:50:27.294Z,68.20
2022-12-01T16:55:31.344Z,71.37
2022-12-01T17:00:29.905Z,81.27
2022-12-01T17:05:28.230Z,76.80
2022-12-01T17:10:26.413Z,90.47
2022-12-01T17:15:25.804Z,78.07
2022-12-01T17:20:23.854Z,75.40
2022-12-01T17:25:22.923Z,91.07
2022-12-01T17:30:22.337Z,85.27
2022-12-01T17:35:22.350Z,89.37
2022-12-01T17:40:20.533Z,76.97
2022-12-01T17:45:19.022Z,81.70
2022-12-01T17:50:17.704Z,82.53
2022-12-01T17:55:17.701Z,82.83
2022-12-01T18:00:16.873Z,79.43
2022-12-01T18:05:14.970Z,83.87
2022-12-01T18:10:13.105Z,88.63
2022-12-01T18:15:13.256Z,81.53
2022-12-01T18:20:11.947Z,80.73
2022-12-01T18:25:10.390Z,86.00
2022-12-01T18:30:09.537Z,82.80
2022-12-01T18:35:09.906Z,76.30
2022-12-01T18:40:09.437Z,84.57
2022-12-01T18:45:08.370Z,76.87
2022-12-01T18:50:09.182Z,77.80
2022-12-01T18:55:07.538Z,92.13
2022-12-01T19:00:07.452Z,82.00
2022-12-01T19:05:05.992Z,80.47
2022-12-01T19:10:06.212Z,77.33
2022-12-01T19:15:04.990Z,77.13
2022-12-01T19:20:04.640Z,74.60
2022-12-01T19:25:02.728Z,73.77
2022-12-01T19:30:02.153Z,72.77
2022-12-01T19:35:00.454Z,70.93
2022-12-01T19:40:00.923Z,82.17
2022-12-01T19:44:59.265Z,79.47
2022-12-01T19:49:58.905Z,67.27
2022-12-01T19:54:57.023Z,67.07
2022-12-01T19:59:55.084Z,68.43
2022-12-01T20:04:53.187Z,80.77
2022-12-01T20:09:52.775Z,80.83
2022-12-01T20:14:52.024Z,66.67
2022-12-01T20:19:50.368Z,66.20
2022-12-01T20:24:48.782Z,72.37
2022-12-01T20:29:48.625Z,71.07
2022-12-01T20:34:46.738Z,72.90
2022-12-01T20:39:44.800Z,65.97
2022-12-01T20:44:42.893Z,66.27
2022-12-01T20:49:42.331Z,74.73
2022-12-01T20:54:41.699Z,72.07
2022-12-01T20:59:39.768Z,72.53
2022-12-01T21:04:37.830Z,74.90
2022-12-01T21:09:37.298Z,66.63
2022-12-01T21:14:40.190Z,62.13
2022-12-01T21:19:51.229Z,64.37
2022-12-01T21:24:53.000Z,68.90
2022-12-01T21:29:51.812Z,80.07
2022-12-01T21:34:50.244Z,68.50
2022-12-01T21:39:51.017Z,71.67
2022-12-01T21:44:49.928Z,64.93
2022-12-01T21:49:51.065Z,67.33
2022-12-01T21:54:51.300Z,66.30
2022-12-01T21:59:50.805Z,62.47
2022-12-01T22:04:49.093Z,70.30
2022-12-01T22:09:47.252Z,72.30
2022-12-01T22:14:46.656Z,70.47
2022-12-01T22:19:47.726Z,67.37
2022-12-01T22:24:48.821Z,62.80
2022-12-01T22:29:50.086Z,60.47
2022-12-01T22:34:52.832Z,67.40
2022-12-01T22:39:53.791Z,62.77
2022-12-01T22:44:53.681Z,64.37
2022-12-01T22:49:52.021Z,60.83
2022-12-01T22:54:51.763Z,58.80
2022-12-01T22:59:50.289Z,64.00
2022-12-01T23:04:51.149Z,62.93
2022-12-01T23:09:49.628Z,59.50
2022-12-01T23:14:49.971Z,60.10
2022-12-01T23:19:50.885Z,51.57
2022-12-01T23:24:49.240Z,58.70
2022-12-01T23:29:47.570Z,65.77
2022-12-01T23:34:45.597Z,59.30
2022-12-01T23:39:45.141Z,66.37
2022-12-01T23:44:45.590Z,58.37
2022-12-01T23:49:44.506Z,57.90
2022-12-01T23:54:43.966Z,55.57
2022-12-01T23:59:41.998Z,60.53
